Rostock, Germany

10:27 PM CEST on September 03, 2015 (GMT +0200)
Evershagen | | Change Station
CLOSE
Current Station
Personal Weather Station
Location: Rostock, MECKLENBURG-VORPOMMERN
Elevation: 7 ft
Nearby Weather Stations

Elev 7 ft 54.12 °N, 12.04 °E | Updated 10 seconds ago

Shallow Fog
Shallow Fog
52.9 °F
Feels Like 52.9 °F
N
0.0
Wind Variable Wind from SSE
Gusts 0.0 mph

Today
High -- | Low -- °F
--% Chance of Precip.
Yesterday
High -- | Low -- °F
Precip. -- in
6:22 AM 7:58 PM
Waning Gibbous, 67% visible
Pressure 29.92 in
Visibility 6.2 miles
Clouds
Dew Point 52 °F
Humidity 97%
Rainfall 0.00 in
Snow Depth Not available.
UV 0.0 out of 12
Pollen Not available.
Air Quality Not available.
Flu Activity Not available.
METAR ETNL 032020Z 07002KT 9999 MIFG 10/10 Q1013 BLU+
Pressure 29.92 in
Visibility 6.2 miles
Clouds
Dew Point 52 °F
Humidity 97%
Rainfall 0.00 in
Snow Depth Not available.
UV 0.0 out of 12
Pollen Not available.
Air Quality Not available.
Flu Activity Not available.
METAR ETNL 032020Z 07002KT 9999 MIFG 10/10 Q1013 BLU+

10-Day Weather Forecast

×

Almanac

Astronomy

Sep. 03, 2015 Rise Set
Actual Time
Civil Twilight
Nautical Twilight
Astronomical Twilight
Moon
Length of Visible Light
Length of Day
Tomorrow will be .
, % of the Moon is Illuminated

Today's Extremes

Country Highs Country Lows

Community

WunderPhotos

Upload Photos

1,852,029 photos uploaded!

WunderBlogs® & News

Nearby

Air Quality

  Air Quality AQ Index Pollutant
Not available.

Snow Depth

Station Depth Elevation

Earthquake Activity

City Distance Mag. Time & Date
Minimum magnitude displayed is 2.5.

Coastal Water Temperatures

Place Temperature

Stations

Nearby Weather Stations

Station Location Temp. Windchill Dew Point Humidity Wind Precip. Elev Updated Type